Terminal Aerodrome Forecast
Issued by NWS

Home | Current Version | Previous Version | Text Only | Print | Product List | Glossary On
Versions: 1 2 3 4 5 6 7 8 9 10 11 12 13 14 15 16
353
FTAK31 PAJN 101725
TAFAYA
TAF
PAYA 101725Z 1018/1118 10005KT P6SM SCT080
      AMD LTD TO CLD VIS AND WIND 1101/1109=

USA.gov is the U.S. government's official web portal to all federal, state and local government web resources and services.